Time;durP1;ratioP1;P1;durP2;ratioP2;P2;SDS_P1;SDS_P2;PMS_P1;PMS_P2;Temp;Humidity;BMP_temperature;BMP_pressure;BME280_temperature;BME280_humidity;BME280_pressure;Samples;Min_cycle;Max_cycle;Signal;HPM_P1;HPM_P2
2022/03/18 00:00:16;;;;;;;;;35.50;31.25;;;;;;;;4935021;28;11654;-79
2022/03/18 00:02:44;;;;;;;;;22.75;22.75;;;;;;;;4947401;28;11547;-75
2022/03/18 00:05:11;;;;;;;;;36.00;32.00;;;;;;;;4943755;28;11643;-74
2022/03/18 00:07:40;;;;;;;;;35.25;32.50;;;;;;;;4942929;28;11648;-74
2022/03/18 00:10:10;;;;;;;;;28.50;26.00;;;;;;;;4941132;28;12996;-75
2022/03/18 00:12:38;;;;;;;;;27.00;25.00;;;;;;;;4938464;28;11720;-73
2022/03/18 00:15:08;;;;;;;;;28.50;25.50;;;;;;;;4939513;28;11607;-74
2022/03/18 00:17:35;;;;;;;;;30.00;28.50;;;;;;;;4941482;28;11638;-74
2022/03/18 00:20:03;;;;;;;;;30.75;30.75;;;;;;;;4943122;28;11628;-73
2022/03/18 00:22:30;;;;;;;;;28.75;27.25;;;;;;;;4950030;28;11619;-75
2022/03/18 00:24:58;;;;;;;;;28.25;24.25;;;;;;;;4941658;28;11572;-74
2022/03/18 00:27:27;;;;;;;;;36.00;31.75;;;;;;;;4944134;28;11652;-75
2022/03/18 00:29:56;;;;;;;;;40.00;38.50;;;;;;;;4949341;28;11608;-75
2022/03/18 00:32:23;;;;;;;;;36.25;29.75;;;;;;;;4944229;28;11535;-74
2022/03/18 00:34:51;;;;;;;;;30.75;24.75;;;;;;;;4940234;28;11709;-74
2022/03/18 00:37:19;;;;;;;;;30.75;28.00;;;;;;;;4924754;28;11687;-74
2022/03/18 00:39:46;;;;;;;;;32.00;25.33;;;;;;;;4940530;28;11565;-80
2022/03/18 00:42:13;;;;;;;;;33.33;29.00;;;;;;;;4941641;28;11582;-80
2022/03/18 00:44:42;;;;;;;;;38.33;33.33;;;;;;;;4937632;28;11714;-79
2022/03/18 00:52:37;;;;;;;;;40.33;32.67;;;;;;;;4942711;28;11568;-76
2022/03/18 00:55:05;;;;;;;;;36.67;33.67;;;;;;;;4945126;28;12345;-81
2022/03/18 00:57:33;;;;;;;;;30.33;29.33;;;;;;;;4963059;28;11585;-78
2022/03/18 01:00:01;;;;;;;;;26.67;25.33;;;;;;;;4942506;28;11770;-77
2022/03/18 01:02:29;;;;;;;;;36.33;32.33;;;;;;;;4939996;28;11560;-80
2022/03/18 01:04:56;;;;;;;;;24.67;23.67;;;;;;;;4946291;28;11586;-82
2022/03/18 01:07:24;;;;;;;;;27.67;21.33;;;;;;;;4944726;28;12580;-81
2022/03/18 01:09:51;;;;;;;;;34.00;28.00;;;;;;;;4940848;28;11608;-81
2022/03/18 01:12:18;;;;;;;;;33.00;30.00;;;;;;;;4941782;28;12413;-80
2022/03/18 01:14:46;;;;;;;;;27.00;21.00;;;;;;;;4943771;28;11688;-76
2022/03/18 01:17:15;;;;;;;;;35.75;28.50;;;;;;;;4952650;28;11582;-80
2022/03/18 01:19:42;;;;;;;;;28.00;24.00;;;;;;;;4941038;28;11767;-75
2022/03/18 01:22:10;;;;;;;;;29.33;24.00;;;;;;;;4941486;28;11630;-81
2022/03/18 01:24:37;;;;;;;;;27.50;25.25;;;;;;;;4941005;28;11643;-81
2022/03/18 01:27:05;;;;;;;;;24.25;18.50;;;;;;;;4946149;28;11588;-81
2022/03/18 01:29:33;;;;;;;;;32.00;23.00;;;;;;;;4984016;28;12352;-78
2022/03/18 01:32:00;;;;;;;;;31.00;29.33;;;;;;;;4925017;28;11577;-80
2022/03/18 01:34:29;;;;;;;;;26.33;23.33;;;;;;;;4942115;28;11596;-82
2022/03/18 01:36:56;;;;;;;;;23.33;23.33;;;;;;;;4940738;28;11597;-80
2022/03/18 01:39:23;;;;;;;;;29.33;27.33;;;;;;;;4970212;28;11683;-80
2022/03/18 01:41:51;;;;;;;;;24.33;23.67;;;;;;;;4941505;28;8876;-79
2022/03/18 01:44:20;;;;;;;;;34.33;30.33;;;;;;;;4934295;28;12192;-78
2022/03/18 01:46:47;;;;;;;;;28.00;28.00;;;;;;;;4940376;28;8907;-82
2022/03/18 01:49:14;;;;;;;;;27.00;24.67;;;;;;;;4976399;28;11587;-81
2022/03/18 01:51:43;;;;;;;;;24.00;24.00;;;;;;;;4940063;28;8880;-81
2022/03/18 01:56:55;;;;;;;;;26.33;23.67;;;;;;;;4955065;28;8973;-81
2022/03/18 01:59:23;;;;;;;;;37.33;31.67;;;;;;;;4942299;28;8865;-82
2022/03/18 02:01:50;;;;;;;;;30.67;26.67;;;;;;;;4939600;28;8856;-82
2022/03/18 02:04:18;;;;;;;;;36.00;30.67;;;;;;;;4947402;28;8888;-82
2022/03/18 02:06:48;;;;;;;;;37.67;31.00;;;;;;;;4939477;28;8922;-81
2022/03/18 02:09:15;;;;;;;;;48.67;44.00;;;;;;;;4941137;28;8920;-78
2022/03/18 02:11:43;;;;;;;;;43.00;39.00;;;;;;;;4936871;28;8858;-77
2022/03/18 02:14:11;;;;;;;;;48.67;44.00;;;;;;;;4946975;28;9606;-77
2022/03/18 02:16:40;;;;;;;;;40.00;35.00;;;;;;;;4929027;28;9015;-82
2022/03/18 02:19:07;;;;;;;;;44.67;35.33;;;;;;;;4946332;28;8891;-82
2022/03/18 02:21:37;;;;;;;;;40.67;40.33;;;;;;;;4943523;28;8930;-80
2022/03/18 02:24:07;;;;;;;;;39.00;36.33;;;;;;;;4939928;28;8865;-82
2022/03/18 02:26:35;;;;;;;;;38.00;36.00;;;;;;;;4942049;28;8897;-80
2022/03/18 02:29:04;;;;;;;;;33.67;33.67;;;;;;;;4974947;28;9642;-79
2022/03/18 02:31:31;;;;;;;;;47.67;40.67;;;;;;;;4938093;28;9675;-83
2022/03/18 02:33:59;;;;;;;;;42.33;40.67;;;;;;;;4941255;28;9059;-79
2022/03/18 02:36:27;;;;;;;;;38.33;32.67;;;;;;;;4940407;28;8871;-81
2022/03/18 02:38:54;;;;;;;;;43.67;36.67;;;;;;;;4948548;28;8867;-82
2022/03/18 02:41:23;;;;;;;;;42.33;36.67;;;;;;;;4938167;28;8914;-83
2022/03/18 02:43:50;;;;;;;;;50.33;45.00;;;;;;;;4945523;28;8944;-80
2022/03/18 02:46:18;;;;;;;;;39.33;33.33;;;;;;;;4914644;28;8908;-83
2022/03/18 02:48:46;;;;;;;;;41.00;35.67;;;;;;;;4951246;28;8882;-83
2022/03/18 02:51:13;;;;;;;;;35.33;31.67;;;;;;;;4942595;28;9032;-83
2022/03/18 02:53:41;;;;;;;;;30.67;30.67;;;;;;;;4931540;28;8951;-82
2022/03/18 02:56:08;;;;;;;;;33.00;31.33;;;;;;;;4942384;28;8859;-83
2022/03/18 02:58:37;;;;;;;;;37.67;32.00;;;;;;;;4940388;28;8884;-84
2022/03/18 03:01:04;;;;;;;;;36.00;34.00;;;;;;;;4940636;28;8833;-78
2022/03/18 03:03:32;;;;;;;;;46.00;37.67;;;;;;;;4940960;28;8896;-83
2022/03/18 03:08:44;;;;;;;;;40.33;32.67;;;;;;;;4972356;28;8841;-84
2022/03/18 03:11:11;;;;;;;;;41.00;36.33;;;;;;;;4943141;28;9646;-83
2022/03/18 03:13:40;;;;;;;;;36.33;33.33;;;;;;;;4945789;28;8878;-81
2022/03/18 03:16:08;;;;;;;;;32.67;30.33;;;;;;;;4928989;28;8910;-82
2022/03/18 03:18:35;;;;;;;;;27.00;27.00;;;;;;;;4943467;28;8865;-81
2022/03/18 03:21:03;;;;;;;;;33.33;29.33;;;;;;;;4934175;28;8924;-83
2022/03/18 03:23:30;;;;;;;;;30.67;30.00;;;;;;;;4942851;28;8953;-80
2022/03/18 03:25:58;;;;;;;;;42.00;31.33;;;;;;;;4943132;28;8871;-77
2022/03/18 03:28:25;;;;;;;;;31.33;29.67;;;;;;;;4943255;28;8892;-75
2022/03/18 03:30:54;;;;;;;;;43.33;31.00;;;;;;;;4957246;28;8831;-81
2022/03/18 03:33:21;;;;;;;;;27.00;27.00;;;;;;;;4954813;28;8883;-78
2022/03/18 03:35:49;;;;;;;;;30.33;29.00;;;;;;;;4941808;28;9049;-79
2022/03/18 03:38:16;;;;;;;;;36.33;30.00;;;;;;;;4940454;28;8995;-81
2022/03/18 03:40:44;;;;;;;;;38.00;31.00;;;;;;;;4936339;28;8882;-82
2022/03/18 03:43:12;;;;;;;;;28.67;28.33;;;;;;;;4946707;28;8876;-80
2022/03/18 03:45:40;;;;;;;;;31.00;29.33;;;;;;;;4942258;28;8896;-82
2022/03/18 03:48:11;;;;;;;;;35.00;33.00;;;;;;;;4945617;28;8942;-81
2022/03/18 03:50:40;;;;;;;;;37.67;34.33;;;;;;;;4948009;28;8900;-82
2022/03/18 03:53:08;;;;;;;;;42.67;37.67;;;;;;;;4941951;28;8871;-82
2022/03/18 03:55:38;;;;;;;;;37.00;34.67;;;;;;;;4941942;28;8882;-82
2022/03/18 03:58:06;;;;;;;;;26.67;23.33;;;;;;;;4949045;28;8850;-79
2022/03/18 04:00:36;;;;;;;;;31.67;28.33;;;;;;;;4929934;28;8805;-82
2022/03/18 04:03:04;;;;;;;;;30.67;26.67;;;;;;;;4942097;28;8918;-82
2022/03/18 04:05:33;;;;;;;;;28.67;26.33;;;;;;;;4962107;28;8871;-80
2022/03/18 04:08:01;;;;;;;;;34.33;27.67;;;;;;;;4941864;28;8895;-76
2022/03/18 04:10:28;;;;;;;;;35.67;33.67;;;;;;;;4928017;28;8879;-75
2022/03/18 04:12:55;;;;;;;;;43.67;38.33;;;;;;;;4945432;28;8904;-80
2022/03/18 04:15:23;;;;;;;;;37.67;34.00;;;;;;;;4943723;28;8896;-82
2022/03/18 04:17:51;;;;;;;;;37.00;33.33;;;;;;;;4941425;28;8896;-81
2022/03/18 04:20:21;;;;;;;;;33.67;30.67;;;;;;;;4952301;28;8872;-82
2022/03/18 04:22:50;;;;;;;;;38.33;29.00;;;;;;;;4943551;28;8871;-82
2022/03/18 04:25:18;;;;;;;;;45.33;39.33;;;;;;;;4943958;28;9003;-77
2022/03/18 04:27:45;;;;;;;;;35.33;35.33;;;;;;;;4977900;28;8931;-79
2022/03/18 04:30:14;;;;;;;;;34.33;33.33;;;;;;;;4940895;28;9769;-80
2022/03/18 04:32:41;;;;;;;;;32.67;26.00;;;;;;;;4941211;28;8961;-76
2022/03/18 04:35:10;;;;;;;;;38.33;37.67;;;;;;;;4941514;28;9311;-81
2022/03/18 04:37:39;;;;;;;;;40.00;37.33;;;;;;;;4941759;28;9015;-82
2022/03/18 04:40:10;;;;;;;;;45.33;37.00;;;;;;;;4941377;28;8882;-80
2022/03/18 04:42:37;;;;;;;;;33.67;33.67;;;;;;;;4941471;28;8922;-81
2022/03/18 04:45:06;;;;;;;;;35.67;33.67;;;;;;;;4938196;28;8884;-79
2022/03/18 04:47:35;;;;;;;;;37.00;34.67;;;;;;;;4934318;28;8869;-79
2022/03/18 04:50:02;;;;;;;;;42.00;38.67;;;;;;;;4948719;28;8853;-80
2022/03/18 04:52:30;;;;;;;;;32.33;29.67;;;;;;;;4948963;28;8868;-83
2022/03/18 04:54:57;;;;;;;;;31.33;31.33;;;;;;;;4944477;28;8911;-82
2022/03/18 04:57:26;;;;;;;;;28.67;28.67;;;;;;;;4941697;28;8869;-84
2022/03/18 04:59:54;;;;;;;;;34.00;32.67;;;;;;;;4941197;28;8910;-82
2022/03/18 05:02:21;;;;;;;;;34.00;31.00;;;;;;;;4938659;28;8915;-80
2022/03/18 05:04:49;;;;;;;;;30.00;29.67;;;;;;;;4939570;28;8888;-82
2022/03/18 05:07:18;;;;;;;;;32.33;31.67;;;;;;;;4939239;28;8884;-80
2022/03/18 05:09:47;;;;;;;;;34.33;31.67;;;;;;;;4939025;28;8892;-82
2022/03/18 05:12:15;;;;;;;;;33.33;28.00;;;;;;;;4943630;28;11636;-84
2022/03/18 05:14:44;;;;;;;;;29.33;26.33;;;;;;;;4944846;28;9019;-80
2022/03/18 05:17:11;;;;;;;;;38.67;31.67;;;;;;;;4945539;28;11683;-80
2022/03/18 05:19:40;;;;;;;;;40.33;35.67;;;;;;;;4948392;28;8878;-80
2022/03/18 05:22:07;;;;;;;;;35.00;31.67;;;;;;;;4923115;28;11631;-80
2022/03/18 05:24:35;;;;;;;;;31.33;27.67;;;;;;;;4938272;28;11610;-77
2022/03/18 05:27:04;;;;;;;;;32.00;32.00;;;;;;;;4931813;28;11564;-79
2022/03/18 05:29:32;;;;;;;;;25.00;25.00;;;;;;;;4937288;28;11585;-79
2022/03/18 05:32:01;;;;;;;;;32.33;30.33;;;;;;;;4933166;28;11572;-80
2022/03/18 05:34:29;;;;;;;;;33.00;28.67;;;;;;;;4927349;28;11602;-80
2022/03/18 05:36:56;;;;;;;;;21.00;21.00;;;;;;;;4941936;28;12402;-81
2022/03/18 05:39:24;;;;;;;;;29.00;27.33;;;;;;;;4936022;28;11751;-79
2022/03/18 05:41:51;;;;;;;;;32.00;28.00;;;;;;;;4935664;28;11590;-80
2022/03/18 05:44:19;;;;;;;;;45.67;43.00;;;;;;;;4937509;28;12408;-81
2022/03/18 05:46:46;;;;;;;;;33.33;27.00;;;;;;;;4936920;28;9015;-80
2022/03/18 05:49:17;;;;;;;;;27.33;27.33;;;;;;;;4924339;28;9736;-81
2022/03/18 05:51:44;;;;;;;;;21.33;21.33;;;;;;;;4939991;28;11617;-81
2022/03/18 05:54:12;;;;;;;;;28.00;23.67;;;;;;;;4937531;28;11627;-80
2022/03/18 05:56:54;;;;;;;;;21.00;21.00;;;;;;;;4936220;28;11635;-79
2022/03/18 05:59:21;;;;;;;;;24.67;23.00;;;;;;;;4934888;28;11656;-80
2022/03/18 06:01:49;;;;;;;;;24.00;24.00;;;;;;;;4933391;28;11651;-79
2022/03/18 06:04:19;;;;;;;;;27.67;20.67;;;;;;;;4937440;28;11799;-76
2022/03/18 06:06:47;;;;;;;;;31.00;26.67;;;;;;;;4941587;28;11629;-80
2022/03/18 06:12:00;;;;;;;;;38.00;31.00;;;;;;;;4937952;28;8861;-78
2022/03/18 06:14:29;;;;;;;;;32.67;25.33;;;;;;;;4936784;28;8893;-79
2022/03/18 06:16:58;;;;;;;;;36.33;32.67;;;;;;;;4939075;28;8868;-79
2022/03/18 06:19:28;;;;;;;;;36.33;31.67;;;;;;;;4935143;28;8953;-76
2022/03/18 06:21:56;;;;;;;;;52.67;46.67;;;;;;;;4945920;28;8892;-78
2022/03/18 06:24:23;;;;;;;;;51.33;43.67;;;;;;;;4935027;28;8909;-78
2022/03/18 06:26:51;;;;;;;;;54.67;41.67;;;;;;;;4934302;28;8871;-80
2022/03/18 06:29:20;;;;;;;;;58.67;46.33;;;;;;;;4936762;28;8930;-79
2022/03/18 06:31:48;;;;;;;;;64.00;45.33;;;;;;;;4936987;28;8841;-87
2022/03/18 06:34:16;;;;;;;;;63.33;50.67;;;;;;;;4912249;28;8889;-78
2022/03/18 06:36:45;;;;;;;;;66.00;53.33;;;;;;;;4924259;28;8881;-77
2022/03/18 06:39:12;;;;;;;;;54.67;45.33;;;;;;;;4938165;28;8938;-82
2022/03/18 06:41:40;;;;;;;;;61.00;48.00;;;;;;;;4930263;28;8942;-84
2022/03/18 06:44:08;;;;;;;;;50.00;45.00;;;;;;;;4917688;28;8863;-82
2022/03/18 06:46:37;;;;;;;;;48.00;42.00;;;;;;;;4941042;28;8899;-83
2022/03/18 06:49:05;;;;;;;;;60.67;49.00;;;;;;;;4934557;28;8857;-81
2022/03/18 06:51:32;;;;;;;;;61.00;47.67;;;;;;;;4925824;28;8855;-85
2022/03/18 06:54:01;;;;;;;;;67.67;52.33;;;;;;;;4927920;28;9605;-85
2022/03/18 06:56:30;;;;;;;;;56.33;48.00;;;;;;;;4936078;28;8893;-82
2022/03/18 06:58:57;;;;;;;;;59.00;48.00;;;;;;;;4929738;28;8863;-82
2022/03/18 07:01:25;;;;;;;;;51.67;40.00;;;;;;;;4932043;28;8837;-83
2022/03/18 07:03:52;;;;;;;;;61.00;48.00;;;;;;;;4934698;28;8871;-80
2022/03/18 07:06:19;;;;;;;;;63.00;50.33;;;;;;;;4934214;28;8880;-76
2022/03/18 07:08:47;;;;;;;;;47.00;44.00;;;;;;;;4937219;28;8859;-75
2022/03/18 07:11:16;;;;;;;;;53.00;45.33;;;;;;;;4931486;28;8880;-76
2022/03/18 07:13:45;;;;;;;;;45.67;35.67;;;;;;;;4921068;28;8884;-76
2022/03/18 07:18:57;;;;;;;;;36.33;35.00;;;;;;;;4934055;28;9635;-75
2022/03/18 07:21:25;;;;;;;;;35.00;35.00;;;;;;;;4930288;28;8883;-74
2022/03/18 07:23:52;;;;;;;;;36.33;34.33;;;;;;;;4940152;28;11610;-77
2022/03/18 07:26:21;;;;;;;;;42.67;38.67;;;;;;;;4939400;28;11639;-78
2022/03/18 07:28:48;;;;;;;;;43.00;39.33;;;;;;;;4950000;28;12378;-75
2022/03/18 07:31:15;;;;;;;;;49.00;39.67;;;;;;;;4931115;28;8843;-76
2022/03/18 07:33:43;;;;;;;;;48.00;40.67;;;;;;;;4918791;28;8900;-74
2022/03/18 07:36:10;;;;;;;;;51.33;44.67;;;;;;;;4935573;28;11607;-73
2022/03/18 07:38:37;;;;;;;;;42.00;41.00;;;;;;;;4934289;28;12635;-74
2022/03/18 07:41:04;;;;;;;;;31.25;31.25;;;;;;;;4937050;28;11748;-74
2022/03/18 07:43:33;;;;;;;;;35.00;32.50;;;;;;;;4937750;28;12370;-75
2022/03/18 07:46:00;;;;;;;;;41.75;38.75;;;;;;;;4927424;28;11741;-78
2022/03/18 07:48:28;;;;;;;;;44.00;39.75;;;;;;;;4944305;28;11784;-78
2022/03/18 07:50:56;;;;;;;;;36.25;33.00;;;;;;;;4943512;28;11599;-76
2022/03/18 07:53:24;;;;;;;;;34.75;34.75;;;;;;;;4945028;28;11789;-78
2022/03/18 07:55:51;;;;;;;;;36.75;36.00;;;;;;;;4946705;28;11644;-77
2022/03/18 07:58:19;;;;;;;;;32.50;28.75;;;;;;;;4936782;28;12263;-78
2022/03/18 08:00:49;;;;;;;;;39.50;39.00;;;;;;;;4943594;28;11524;-79
2022/03/18 08:03:16;;;;;;;;;30.00;27.25;;;;;;;;4940834;28;11782;-78
2022/03/18 08:05:44;;;;;;;;;38.00;30.75;;;;;;;;4943561;28;12827;-74
2022/03/18 08:08:11;;;;;;;;;23.75;21.00;;;;;;;;4941304;28;11766;-74
2022/03/18 08:10:39;;;;;;;;;26.50;22.25;;;;;;;;4935798;28;11618;-76
2022/03/18 08:13:07;;;;;;;;;26.75;26.75;;;;;;;;4962624;28;11600;-75
2022/03/18 08:15:35;;;;;;;;;27.00;27.00;;;;;;;;4943173;28;11588;-76
2022/03/18 08:18:04;;;;;;;;;41.50;35.25;;;;;;;;4940173;28;11588;-76
2022/03/18 08:20:39;;;;;;;;;24.00;24.00;;;;;;;;4937015;28;11598;-76
2022/03/18 08:23:07;;;;;;;;;28.00;28.00;;;;;;;;4929636;28;11545;-75
2022/03/18 08:25:34;;;;;;;;;30.50;27.75;;;;;;;;4944224;28;11591;-76
2022/03/18 08:28:01;;;;;;;;;26.75;26.00;;;;;;;;4943701;28;11670;-76
2022/03/18 08:30:29;;;;;;;;;27.75;26.50;;;;;;;;4941767;28;11571;-76
2022/03/18 08:32:59;;;;;;;;;25.25;22.75;;;;;;;;4939910;28;11582;-75
2022/03/18 08:35:28;;;;;;;;;26.25;24.75;;;;;;;;4939333;28;11617;-76
2022/03/18 08:37:58;;;;;;;;;20.75;18.50;;;;;;;;4937181;28;11721;-75
2022/03/18 08:40:27;;;;;;;;;27.50;26.50;;;;;;;;4941064;28;11623;-76
2022/03/18 08:42:55;;;;;;;;;24.00;24.00;;;;;;;;4943849;28;11594;-76
2022/03/18 08:45:22;;;;;;;;;21.75;19.25;;;;;;;;4941131;28;11605;-76
2022/03/18 08:47:50;;;;;;;;;23.50;21.50;;;;;;;;4939706;28;11612;-76
2022/03/18 08:50:18;;;;;;;;;25.25;23.00;;;;;;;;4941108;28;11535;-76
2022/03/18 08:52:47;;;;;;;;;25.75;22.25;;;;;;;;4940219;28;11513;-75
2022/03/18 08:55:15;;;;;;;;;21.75;21.75;;;;;;;;4939486;28;11651;-76
2022/03/18 08:57:42;;;;;;;;;23.75;21.25;;;;;;;;4941662;28;11511;-76
2022/03/18 09:00:12;;;;;;;;;25.00;23.50;;;;;;;;4937467;28;11564;-76
2022/03/18 09:02:40;;;;;;;;;22.25;19.50;;;;;;;;4941815;28;11558;-78
2022/03/18 09:05:09;;;;;;;;;21.25;20.50;;;;;;;;4941929;28;11650;-78
2022/03/18 09:07:37;;;;;;;;;25.25;18.75;;;;;;;;4942613;28;11700;-76
2022/03/18 09:10:07;;;;;;;;;23.00;20.00;;;;;;;;4941849;28;11532;-76
2022/03/18 09:12:34;;;;;;;;;22.00;22.00;;;;;;;;4950351;28;11342;-76
2022/03/18 09:15:02;;;;;;;;;19.75;19.75;;;;;;;;4945055;28;11638;-76
2022/03/18 09:17:30;;;;;;;;;19.00;18.75;;;;;;;;4936781;28;11104;-76
2022/03/18 09:19:57;;;;;;;;;22.50;21.00;;;;;;;;4929631;28;11075;-76
2022/03/18 09:22:24;;;;;;;;;17.75;17.75;;;;;;;;4941410;28;11081;-76
2022/03/18 09:24:51;;;;;;;;;21.25;17.00;;;;;;;;4942631;28;11204;-76
2022/03/18 09:27:20;;;;;;;;;17.75;17.00;;;;;;;;4943526;28;11140;-76
2022/03/18 09:29:47;;;;;;;;;19.50;17.50;;;;;;;;4958163;28;11024;-76
2022/03/18 09:32:15;;;;;;;;;13.75;13.75;;;;;;;;4926519;28;11735;-76
2022/03/18 09:34:43;;;;;;;;;8.00;8.00;;;;;;;;4940850;28;10760;-76
2022/03/18 09:37:10;;;;;;;;;19.50;17.00;;;;;;;;4942906;28;11575;-76
2022/03/18 09:39:37;;;;;;;;;19.00;17.50;;;;;;;;4940966;28;10486;-77
2022/03/18 09:42:06;;;;;;;;;14.75;14.25;;;;;;;;4941797;28;10504;-77
2022/03/18 09:44:36;;;;;;;;;18.00;14.00;;;;;;;;4953301;28;11324;-77
2022/03/18 09:47:05;;;;;;;;;15.75;15.75;;;;;;;;4922671;29;10313;-76
2022/03/18 09:49:34;;;;;;;;;14.75;14.75;;;;;;;;4945111;28;10354;-76
2022/03/18 09:52:01;;;;;;;;;16.50;14.00;;;;;;;;4917324;28;10390;-78
2022/03/18 09:54:30;;;;;;;;;16.25;14.75;;;;;;;;4922152;29;10309;-79
2022/03/18 09:56:58;;;;;;;;;19.00;16.50;;;;;;;;4922231;28;10190;-78
2022/03/18 09:59:27;;;;;;;;;15.25;15.25;;;;;;;;4923430;28;10321;-78
2022/03/18 10:02:27;;;;;;;;;17.00;12.50;;;;;;;;4920031;28;9928;-78
2022/03/18 10:04:55;;;;;;;;;13.50;12.00;;;;;;;;4921617;29;9998;-78
2022/03/18 10:07:23;;;;;;;;;13.50;11.75;;;;;;;;4918979;29;10113;-79
2022/03/18 10:09:52;;;;;;;;;18.25;16.00;;;;;;;;4920779;29;9894;-78
2022/03/18 10:12:34;;;;;;;;;6.00;6.00;;;;;;;;4922862;29;9900;-78
2022/03/18 10:15:13;;;;;;;;;13.25;13.25;;;;;;;;4920682;29;9883;-78
2022/03/18 10:17:46;;;;;;;;;11.00;11.00;;;;;;;;4922086;29;10697;-79
2022/03/18 10:20:32;;;;;;;;;15.00;14.50;;;;;;;;4918963;29;9711;-79
2022/03/18 10:23:04;;;;;;;;;13.25;13.25;;;;;;;;4909575;29;9673;-79
2022/03/18 10:25:50;;;;;;;;;12.00;10.75;;;;;;;;4921238;29;9664;-78
2022/03/18 10:28:19;;;;;;;;;12.00;10.50;;;;;;;;4920090;29;9695;-79
2022/03/18 10:30:47;;;;;;;;;12.00;11.75;;;;;;;;4921114;28;9522;-79
2022/03/18 10:33:16;;;;;;;;;8.75;8.75;;;;;;;;4922559;29;9576;-79
2022/03/18 10:38:34;;;;;;;;;12.33;12.33;;;;;;;;4926443;29;9398;-79
2022/03/18 10:41:07;;;;;;;;;14.00;14.00;;;;;;;;4919889;29;9509;-79
2022/03/18 10:43:53;;;;;;;;;12.00;12.00;;;;;;;;4927620;29;9383;-80
2022/03/18 10:46:21;;;;;;;;;12.67;11.00;;;;;;;;4967112;28;9409;-79
2022/03/18 10:49:06;;;;;;;;;11.00;11.00;;;;;;;;4968398;28;9335;-79
2022/03/18 10:51:35;;;;;;;;;14.00;12.00;;;;;;;;4937564;28;9348;-79
2022/03/18 10:54:02;;;;;;;;;11.33;9.00;;;;;;;;4940533;28;9571;-79
2022/03/18 10:56:30;;;;;;;;;15.67;11.67;;;;;;;;4942212;28;9121;-77
2022/03/18 10:58:57;;;;;;;;;10.67;8.67;;;;;;;;4943106;28;9095;-77
2022/03/18 11:01:25;;;;;;;;;10.00;10.00;;;;;;;;4940999;28;9004;-76
2022/03/18 11:03:53;;;;;;;;;10.33;9.67;;;;;;;;4941523;28;9048;-77
2022/03/18 11:06:22;;;;;;;;;14.00;10.00;;;;;;;;4929958;28;8981;-77
2022/03/18 11:08:50;;;;;;;;;10.67;10.00;;;;;;;;4940429;28;9577;-76
2022/03/18 11:11:18;;;;;;;;;11.00;11.00;;;;;;;;4939637;28;9010;-76
2022/03/18 11:13:51;;;;;;;;;9.00;9.00;;;;;;;;4951404;28;9700;-76
2022/03/18 11:16:20;;;;;;;;;8.25;8.25;;;;;;;;4940060;28;8987;-76
2022/03/18 11:18:49;;;;;;;;;10.00;10.00;;;;;;;;4939708;28;8983;-76
2022/03/18 11:21:18;;;;;;;;;9.50;9.50;;;;;;;;4925157;28;8876;-77
2022/03/18 11:23:47;;;;;;;;;8.75;8.75;;;;;;;;4936334;28;8887;-77
2022/03/18 11:26:18;;;;;;;;;14.25;11.00;;;;;;;;4944020;28;9047;-77
2022/03/18 11:28:46;;;;;;;;;9.75;9.00;;;;;;;;4931451;28;8892;-76
2022/03/18 11:31:20;;;;;;;;;11.00;8.75;;;;;;;;4947888;28;8948;-77
2022/03/18 11:34:09;;;;;;;;;9.25;9.25;;;;;;;;4946086;28;8900;-78
2022/03/18 11:36:38;;;;;;;;;9.50;9.50;;;;;;;;4949276;28;9073;-77
2022/03/18 11:39:08;;;;;;;;;11.75;10.00;;;;;;;;4943206;28;8875;-80
2022/03/18 11:41:58;;;;;;;;;9.25;8.25;;;;;;;;4935081;28;9007;-77
2022/03/18 11:44:53;;;;;;;;;6.50;6.50;;;;;;;;4942128;28;8873;-78
2022/03/18 11:47:48;;;;;;;;;9.25;6.25;;;;;;;;4942489;28;9273;-79
2022/03/18 11:50:49;;;;;;;;;5.00;5.00;;;;;;;;4949236;28;8865;-77
2022/03/18 11:53:48;;;;;;;;;5.00;5.00;;;;;;;;4947917;28;8971;-77
2022/03/18 11:56:23;;;;;;;;;7.50;5.75;;;;;;;;4900005;28;8884;-78
2022/03/18 11:58:50;;;;;;;;;6.50;6.00;;;;;;;;4922752;28;8999;-78
2022/03/18 12:01:41;;;;;;;;;6.75;6.50;;;;;;;;4945676;28;8856;-77
2022/03/18 12:04:09;;;;;;;;;5.00;5.00;;;;;;;;4934018;28;9690;-78
2022/03/18 12:07:13;;;;;;;;;4.75;4.75;;;;;;;;4941193;28;8881;-79
2022/03/18 12:09:58;;;;;;;;;9.00;6.75;;;;;;;;4940787;28;8876;-78
2022/03/18 12:12:30;;;;;;;;;6.50;5.50;;;;;;;;4926316;28;9902;-80
2022/03/18 12:14:59;;;;;;;;;5.00;5.00;;;;;;;;4942100;28;8917;-78
2022/03/18 12:17:26;;;;;;;;;6.25;6.00;;;;;;;;4954396;28;8872;-80
2022/03/18 12:20:00;;;;;;;;;5.00;5.00;;;;;;;;4941518;28;8872;-78
2022/03/18 12:22:29;;;;;;;;;4.00;4.00;;;;;;;;4993148;28;8975;-78
2022/03/18 12:24:57;;;;;;;;;3.00;3.00;;;;;;;;4937480;28;8938;-80
2022/03/18 12:27:31;;;;;;;;;3.00;3.00;;;;;;;;4943662;28;8892;-79
2022/03/18 12:29:59;;;;;;;;;6.75;5.75;;;;;;;;4939239;28;8865;-78
2022/03/18 12:32:27;;;;;;;;;5.25;4.75;;;;;;;;4938864;28;8930;-79
2022/03/18 12:34:55;;;;;;;;;6.25;5.25;;;;;;;;4934049;28;8869;-78
2022/03/18 12:37:24;;;;;;;;;5.00;5.00;;;;;;;;4942353;28;8890;-78
2022/03/18 12:40:09;;;;;;;;;3.25;3.25;;;;;;;;4942527;28;8886;-79
2022/03/18 12:42:49;;;;;;;;;6.00;4.75;;;;;;;;4935414;28;9032;-80
2022/03/18 12:45:25;;;;;;;;;4.75;4.75;;;;;;;;4938140;28;9006;-81
2022/03/18 12:47:54;;;;;;;;;6.50;6.50;;;;;;;;4937363;28;8913;-81
2022/03/18 12:50:25;;;;;;;;;6.25;5.75;;;;;;;;4943429;28;9573;-80
2022/03/18 12:52:52;;;;;;;;;4.50;4.50;;;;;;;;4949155;28;8891;-81
2022/03/18 12:55:22;;;;;;;;;4.00;4.00;;;;;;;;4941928;28;8871;-80
2022/03/18 12:57:51;;;;;;;;;2.00;2.00;;;;;;;;4960546;28;8878;-80
2022/03/18 13:00:21;;;;;;;;;7.00;5.50;;;;;;;;4958741;28;8885;-81
2022/03/18 13:02:51;;;;;;;;;5.25;5.00;;;;;;;;4942815;28;8881;-81
2022/03/18 13:05:19;;;;;;;;;4.50;4.50;;;;;;;;4943428;28;9010;-80
2022/03/18 13:07:50;;;;;;;;;8.00;5.00;;;;;;;;4941162;28;8884;-80
2022/03/18 13:10:22;;;;;;;;;6.00;6.00;;;;;;;;4940100;28;8868;-82
2022/03/18 13:12:51;;;;;;;;;6.00;6.00;;;;;;;;4942333;28;8888;-79
2022/03/18 13:15:20;;;;;;;;;6.25;5.00;;;;;;;;4938223;28;8877;-77
2022/03/18 13:17:48;;;;;;;;;4.00;4.00;;;;;;;;4938473;28;8896;-79
2022/03/18 13:20:27;;;;;;;;;8.25;6.25;;;;;;;;4946160;28;8900;-80
2022/03/18 13:22:55;;;;;;;;;6.00;6.00;;;;;;;;4941675;28;8888;-81
2022/03/18 13:25:23;;;;;;;;;9.50;8.00;;;;;;;;4941847;28;9016;-80
2022/03/18 13:27:52;;;;;;;;;5.50;5.50;;;;;;;;4941474;28;9513;-80
2022/03/18 13:33:07;;;;;;;;;5.00;5.00;;;;;;;;4940764;28;8849;-80
2022/03/18 13:35:44;;;;;;;;;5.25;5.25;;;;;;;;4940547;28;9023;-80
2022/03/18 13:38:14;;;;;;;;;5.75;5.75;;;;;;;;4941287;28;8987;-80
2022/03/18 13:40:54;;;;;;;;;5.00;5.00;;;;;;;;4941137;28;9642;-80
2022/03/18 13:43:26;;;;;;;;;3.00;3.00;;;;;;;;4939901;28;8959;-78
2022/03/18 13:45:53;;;;;;;;;4.75;4.75;;;;;;;;4999869;28;8892;-79
2022/03/18 13:48:28;;;;;;;;;4.25;4.25;;;;;;;;4942788;28;9709;-80
2022/03/18 13:50:55;;;;;;;;;5.00;5.00;;;;;;;;4947511;28;9005;-81
2022/03/18 13:53:24;;;;;;;;;5.75;5.75;;;;;;;;4974665;28;9015;-80
2022/03/18 13:55:52;;;;;;;;;4.00;3.00;;;;;;;;4941396;28;9661;-80
2022/03/18 13:58:28;;;;;;;;;5.00;3.75;;;;;;;;4941091;28;8892;-81
2022/03/18 14:01:05;;;;;;;;;5.00;4.00;;;;;;;;5005424;28;8919;-80
2022/03/18 14:03:33;;;;;;;;;5.25;5.25;;;;;;;;4941108;28;8942;-81
2022/03/18 14:06:01;;;;;;;;;4.75;3.00;;;;;;;;4937839;28;9893;-81
2022/03/18 14:08:29;;;;;;;;;5.25;4.00;;;;;;;;4941399;28;8990;-81
2022/03/18 14:10:59;;;;;;;;;5.75;5.75;;;;;;;;4946328;28;8881;-80
2022/03/18 14:13:30;;;;;;;;;7.50;6.00;;;;;;;;4946813;28;8880;-79
2022/03/18 14:15:59;;;;;;;;;2.00;2.00;;;;;;;;4941012;28;8872;-80
2022/03/18 14:18:42;;;;;;;;;5.50;5.50;;;;;;;;4940053;28;9039;-79
2022/03/18 14:21:11;;;;;;;;;6.00;5.50;;;;;;;;4953917;28;9352;-80
2022/03/18 14:23:44;;;;;;;;;6.25;6.25;;;;;;;;4964718;28;8896;-79
2022/03/18 14:26:12;;;;;;;;;4.25;4.25;;;;;;;;4941078;28;8908;-80
2022/03/18 14:28:42;;;;;;;;;8.25;7.00;;;;;;;;4938635;28;8900;-80
2022/03/18 14:31:09;;;;;;;;;5.25;5.25;;;;;;;;4937668;28;8839;-80
2022/03/18 14:33:38;;;;;;;;;6.25;5.00;;;;;;;;4940199;28;9009;-80
2022/03/18 14:36:06;;;;;;;;;7.50;5.25;;;;;;;;4951625;28;8954;-80
2022/03/18 14:38:34;;;;;;;;;6.75;5.00;;;;;;;;4940702;28;8961;-80
2022/03/18 14:41:01;;;;;;;;;5.00;5.00;;;;;;;;4935506;28;8889;-80
2022/03/18 14:43:30;;;;;;;;;5.25;5.00;;;;;;;;4980628;28;8895;-81
2022/03/18 14:45:58;;;;;;;;;6.00;6.00;;;;;;;;4940616;28;8896;-80
2022/03/18 14:48:26;;;;;;;;;6.00;6.00;;;;;;;;4997645;28;8935;-81
2022/03/18 14:50:54;;;;;;;;;8.50;7.00;;;;;;;;4940690;28;8896;-81
2022/03/18 14:53:22;;;;;;;;;3.00;3.00;;;;;;;;4939461;28;8997;-80
2022/03/18 14:58:34;;;;;;;;;6.25;6.00;;;;;;;;4942491;28;8869;-80
2022/03/18 15:01:04;;;;;;;;;4.25;4.25;;;;;;;;5009388;28;8829;-81
2022/03/18 15:03:31;;;;;;;;;5.25;3.50;;;;;;;;4944801;28;9654;-80
2022/03/18 15:05:58;;;;;;;;;5.50;5.50;;;;;;;;4943243;28;8931;-80
2022/03/18 15:08:26;;;;;;;;;7.00;5.50;;;;;;;;4944209;28;8868;-81
2022/03/18 15:10:54;;;;;;;;;8.00;8.00;;;;;;;;4942296;28;8989;-79